Time;durP1;ratioP1;P1;durP2;ratioP2;P2;SDS_P1;SDS_P2;PMS_P1;PMS_P2;Temp;Humidity;BMP_temperature;BMP_pressure;BME280_temperature;BME280_humidity;BME280_pressure;Samples;Min_cycle;Max_cycle;Signal;HPM_P1;HPM_P2
2023/09/17 00:01:26;;;;;;;9.57;6.78;;;14.00;99.90;;;;;;8277124;28;20064;-82
2023/09/17 00:05:27;;;;;;;10.57;7.32;;;14.00;99.90;;;;;;8279706;28;20044;-82
2023/09/17 00:09:27;;;;;;;8.65;6.75;;;13.80;99.90;;;;;;8291669;28;20501;-82
2023/09/17 00:13:29;;;;;;;8.35;6.45;;;13.80;99.90;;;;;;8267388;28;20042;-81
2023/09/17 00:17:30;;;;;;;11.10;7.63;;;13.70;99.90;;;;;;8278574;28;20014;-82
2023/09/17 00:21:30;;;;;;;13.35;7.30;;;13.60;99.90;;;;;;8260027;28;20037;-82
2023/09/17 00:25:31;;;;;;;11.75;7.68;;;13.60;99.90;;;;;;8259620;28;20501;-81
2023/09/17 00:29:32;;;;;;;12.93;7.10;;;13.80;99.90;;;;;;8274924;28;20033;-80
2023/09/17 00:33:32;;;;;;;9.93;7.68;;;14.30;99.90;;;;;;8262405;28;20033;-81
2023/09/17 00:37:33;;;;;;;11.05;7.55;;;14.40;99.90;;;;;;8271966;28;20084;-81
2023/09/17 00:41:33;;;;;;;14.73;8.15;;;14.10;99.90;;;;;;8266977;28;20014;-82
2023/09/17 00:45:34;;;;;;;8.20;6.45;;;13.80;99.90;;;;;;8261506;28;20115;-79
2023/09/17 00:49:35;;;;;;;10.57;7.75;;;13.70;99.90;;;;;;8269625;28;20569;-82
2023/09/17 00:53:36;;;;;;;9.82;7.45;;;13.50;99.90;;;;;;8263127;28;20173;-81
2023/09/17 00:57:40;;;;;;;13.40;7.45;;;13.40;99.90;;;;;;8280920;28;20114;-81
2023/09/17 01:01:42;;;;;;;12.77;7.03;;;13.30;99.90;;;;;;8269490;28;20019;-81
2023/09/17 01:05:43;;;;;;;12.88;7.30;;;13.20;99.90;;;;;;8262540;28;20427;-81
2023/09/17 01:09:43;;;;;;;9.52;7.53;;;13.20;99.90;;;;;;8281366;28;20297;-81
2023/09/17 01:13:49;;;;;;;10.45;7.30;;;13.20;99.90;;;;;;8268329;28;20018;-82
2023/09/17 01:17:53;;;;;;;11.45;7.18;;;13.10;99.90;;;;;;8262464;28;20088;-79
2023/09/17 01:22:34;;;;;;;10.50;7.50;;;13.10;99.90;;;;;;8250928;28;20022;-81
2023/09/17 01:26:37;;;;;;;10.77;7.07;;;13.00;99.90;;;;;;8222355;28;20027;-82
2023/09/17 01:30:41;;;;;;;12.25;8.60;;;13.10;99.90;;;;;;8269623;28;20057;-81
2023/09/17 01:34:45;;;;;;;12.98;7.55;;;13.00;99.90;;;;;;8257542;28;20163;-81
2023/09/17 01:38:52;;;;;;;11.82;7.63;;;12.90;99.90;;;;;;8251037;28;20010;-81
2023/09/17 01:42:54;;;;;;;11.35;8.45;;;12.90;99.90;;;;;;8251298;28;20026;-81
2023/09/17 01:47:00;;;;;;;10.18;7.90;;;12.90;99.90;;;;;;8265038;28;20501;-79
2023/09/17 01:51:02;;;;;;;10.45;7.68;;;13.00;99.90;;;;;;8287299;28;20018;-81
2023/09/17 01:55:03;;;;;;;10.98;8.18;;;12.90;99.90;;;;;;8266774;28;20034;-81
2023/09/17 01:59:07;;;;;;;10.93;7.60;;;13.00;99.90;;;;;;8269289;28;20022;-81
2023/09/17 02:03:08;;;;;;;10.60;7.10;;;13.00;99.90;;;;;;8269621;28;20037;-82
2023/09/17 02:07:09;;;;;;;13.25;8.10;;;13.10;99.90;;;;;;8284501;28;20037;-81
2023/09/17 02:11:09;;;;;;;12.23;8.57;;;13.00;99.90;;;;;;8269307;28;20401;-82
2023/09/17 02:15:10;;;;;;;11.15;7.25;;;13.00;99.90;;;;;;8280644;28;20030;-81
2023/09/17 02:19:10;;;;;;;11.95;7.85;;;13.00;99.90;;;;;;8252212;28;20049;-80
2023/09/17 02:23:11;;;;;;;11.85;7.57;;;13.00;99.90;;;;;;8269544;28;20105;-81
2023/09/17 02:27:13;;;;;;;10.45;7.38;;;13.00;99.90;;;;;;8259620;28;20034;-81
2023/09/17 02:31:14;;;;;;;11.15;6.95;;;13.00;99.90;;;;;;8255661;28;20031;-81
2023/09/17 02:35:14;;;;;;;13.07;7.47;;;13.00;99.90;;;;;;8231430;28;20026;-81
2023/09/17 02:39:15;;;;;;;9.88;7.93;;;13.00;99.90;;;;;;8235420;28;20118;-81
2023/09/17 02:43:15;;;;;;;11.73;8.88;;;13.00;99.90;;;;;;8233220;28;20023;-81
2023/09/17 02:47:16;;;;;;;11.77;8.27;;;13.10;99.90;;;;;;8225512;28;20039;-81
2023/09/17 02:51:16;;;;;;;9.27;7.22;;;13.10;99.90;;;;;;8234684;28;20042;-81
2023/09/17 02:55:17;;;;;;;11.85;7.90;;;13.10;99.90;;;;;;8243240;28;20030;-81
2023/09/17 02:59:18;;;;;;;10.60;7.90;;;13.00;99.90;;;;;;8235412;28;20027;-81
2023/09/17 03:03:18;;;;;;;9.25;7.43;;;12.80;99.90;;;;;;8225903;28;20031;-81
2023/09/17 03:07:19;;;;;;;9.65;7.68;;;12.80;99.90;;;;;;8235539;28;20534;-80
2023/09/17 03:11:21;;;;;;;9.20;6.97;;;12.70;99.90;;;;;;8232877;28;20059;-80
2023/09/17 03:15:21;;;;;;;9.23;7.13;;;12.70;99.90;;;;;;8236216;28;20026;-81
2023/09/17 03:19:22;;;;;;;11.25;8.30;;;12.70;99.90;;;;;;8236124;28;20023;-81
2023/09/17 03:23:22;;;;;;;9.80;7.10;;;12.60;99.90;;;;;;8254046;28;20097;-81
2023/09/17 03:27:23;;;;;;;13.05;8.55;;;12.50;99.90;;;;;;8242775;28;20030;-81
2023/09/17 03:31:24;;;;;;;12.48;8.93;;;12.50;99.90;;;;;;8242941;28;20033;-81
2023/09/17 03:35:24;;;;;;;12.80;8.18;;;12.50;99.90;;;;;;8262670;28;20555;-81
2023/09/17 03:39:25;;;;;;;11.27;8.35;;;12.40;99.90;;;;;;8246972;28;20051;-81
2023/09/17 03:43:29;;;;;;;14.32;8.50;;;12.50;99.90;;;;;;8231001;28;20023;-80
2023/09/17 03:47:30;;;;;;;10.77;8.02;;;12.60;99.90;;;;;;8240815;28;20030;-81
2023/09/17 03:51:31;;;;;;;11.25;8.40;;;12.70;99.90;;;;;;8232720;28;20031;-81
2023/09/17 03:55:34;;;;;;;9.65;7.90;;;12.60;99.90;;;;;;8253795;28;20749;-81
2023/09/17 03:59:34;;;;;;;12.60;8.32;;;12.60;99.90;;;;;;8233694;28;20382;-81
2023/09/17 04:03:36;;;;;;;14.65;8.43;;;12.60;99.90;;;;;;8225056;28;20022;-81
2023/09/17 04:07:38;;;;;;;10.27;8.13;;;12.60;99.90;;;;;;8231227;28;20023;-81
2023/09/17 04:11:38;;;;;;;12.20;7.60;;;12.60;99.90;;;;;;8226237;28;20557;-80
2023/09/17 04:15:39;;;;;;;9.48;8.13;;;12.60;99.90;;;;;;8236833;28;20031;-81
2023/09/17 04:19:39;;;;;;;14.93;9.75;;;12.70;99.90;;;;;;8240389;28;20138;-81
2023/09/17 04:23:40;;;;;;;17.02;8.30;;;12.80;99.90;;;;;;8240623;28;20061;-81
2023/09/17 04:27:44;;;;;;;14.20;9.02;;;12.80;99.90;;;;;;8238947;28;20034;-81
2023/09/17 04:31:46;;;;;;;12.38;8.40;;;12.90;99.90;;;;;;8219895;28;20042;-84
2023/09/17 04:35:46;;;;;;;8.63;7.35;;;12.90;99.90;;;;;;8240365;28;20030;-81
2023/09/17 04:39:49;;;;;;;11.38;8.32;;;13.10;99.90;;;;;;8250227;28;20029;-81
2023/09/17 04:43:49;;;;;;;16.65;9.10;;;13.00;99.90;;;;;;8251762;28;20061;-82
2023/09/17 04:47:50;;;;;;;15.88;10.27;;;13.00;99.90;;;;;;8224532;28;20030;-79
2023/09/17 04:51:50;;;;;;;13.70;8.85;;;13.10;99.90;;;;;;8240940;28;20023;-81
2023/09/17 04:55:51;;;;;;;9.90;8.23;;;13.20;99.90;;;;;;8252163;28;20037;-82
2023/09/17 04:59:51;;;;;;;13.45;8.40;;;13.20;99.90;;;;;;8239062;28;20394;-82
2023/09/17 05:03:53;;;;;;;11.57;8.45;;;13.20;99.90;;;;;;8236068;28;20034;-82
2023/09/17 05:07:54;;;;;;;10.43;8.40;;;13.40;99.90;;;;;;8225182;28;20082;-81
2023/09/17 05:11:54;;;;;;;10.25;8.15;;;13.40;99.90;;;;;;8250164;28;20018;-82
2023/09/17 05:15:55;;;;;;;11.98;8.85;;;13.40;99.90;;;;;;8235679;28;20110;-81
2023/09/17 05:19:55;;;;;;;10.63;8.85;;;13.40;99.90;;;;;;8232356;28;20018;-82
2023/09/17 05:23:56;;;;;;;10.65;8.02;;;13.50;99.90;;;;;;8257088;28;20453;-82
2023/09/17 05:27:56;;;;;;;13.77;9.82;;;13.70;99.90;;;;;;8227907;28;20022;-81
2023/09/17 05:31:57;;;;;;;13.27;9.30;;;13.90;99.90;;;;;;8306755;23;20056;-84
2023/09/17 05:35:57;;;;;;;12.32;9.32;;;13.90;99.90;;;;;;8320106;28;20490;-84
2023/09/17 05:39:58;;;;;;;12.30;8.15;;;14.00;99.90;;;;;;8273078;28;20022;-84
2023/09/17 05:44:00;;;;;;;13.15;8.57;;;14.00;99.90;;;;;;8254872;28;20037;-84
2023/09/17 05:48:01;;;;;;;9.75;8.05;;;14.00;99.90;;;;;;8247539;28;20522;-84
2023/09/17 05:52:02;;;;;;;10.43;8.05;;;14.10;99.90;;;;;;8270236;28;20117;-83
2023/09/17 05:56:04;;;;;;;9.80;8.13;;;14.00;99.90;;;;;;8271170;28;20034;-84
2023/09/17 06:00:07;;;;;;;10.55;8.50;;;14.00;99.90;;;;;;8280696;28;20018;-84
2023/09/17 06:04:08;;;;;;;12.93;10.15;;;14.00;99.90;;;;;;8279923;28;20027;-84
2023/09/17 06:08:09;;;;;;;14.10;10.30;;;14.00;99.90;;;;;;8257824;28;20046;-84
2023/09/17 06:12:09;;;;;;;16.77;10.75;;;14.10;99.90;;;;;;8271264;28;20027;-84
2023/09/17 06:16:10;;;;;;;15.38;10.63;;;14.20;99.90;;;;;;8240891;28;20491;-85
2023/09/17 06:20:10;;;;;;;18.35;11.13;;;14.30;99.90;;;;;;8254332;28;20033;-83
2023/09/17 06:24:11;;;;;;;19.88;12.32;;;14.40;99.90;;;;;;8258663;28;20045;-84
2023/09/17 06:28:11;;;;;;;17.75;12.38;;;14.50;99.90;;;;;;8252674;28;20042;-84
2023/09/17 06:32:12;;;;;;;16.40;11.60;;;14.70;99.90;;;;;;8280009;28;20065;-83
2023/09/17 06:36:13;;;;;;;16.23;11.77;;;15.00;99.90;;;;;;8252146;28;20041;-83
2023/09/17 06:40:14;;;;;;;15.00;11.70;;;15.20;99.90;;;;;;8269973;28;20031;-82
2023/09/17 06:44:14;;;;;;;18.80;12.75;;;15.50;99.90;;;;;;8281595;28;20054;-84
2023/09/17 06:48:15;;;;;;;12.77;10.73;;;15.80;99.90;;;;;;8261848;28;20056;-84
2023/09/17 06:52:18;;;;;;;15.25;11.07;;;16.30;99.90;;;;;;8287671;28;20030;-84
2023/09/17 06:56:18;;;;;;;13.00;10.13;;;16.60;99.90;;;;;;8258662;28;20169;-84
2023/09/17 07:00:19;;;;;;;12.93;10.40;;;17.00;99.90;;;;;;8267078;28;20031;-84
2023/09/17 07:04:19;;;;;;;13.32;10.27;;;17.20;99.90;;;;;;8287732;28;20037;-85
2023/09/17 07:08:20;;;;;;;13.00;9.73;;;17.40;99.90;;;;;;8284330;28;20041;-84
2023/09/17 07:12:20;;;;;;;11.45;9.75;;;17.70;99.90;;;;;;8257575;28;20026;-83
2023/09/17 07:16:23;;;;;;;13.48;9.43;;;17.90;99.90;;;;;;8258334;28;20026;-84
2023/09/17 07:20:24;;;;;;;12.02;9.50;;;18.30;99.90;;;;;;8293846;28;20486;-85
2023/09/17 07:24:24;;;;;;;12.82;9.45;;;18.70;99.90;;;;;;8256464;28;20076;-83
2023/09/17 07:28:25;;;;;;;10.63;8.65;;;19.50;99.90;;;;;;8265281;28;20033;-84
2023/09/17 07:32:27;;;;;;;11.20;8.88;;;19.70;99.90;;;;;;8272157;28;20171;-84
2023/09/17 07:36:27;;;;;;;9.52;8.55;;;19.90;99.90;;;;;;8257177;28;20026;-88
2023/09/17 07:40:28;;;;;;;11.00;9.10;;;20.30;99.90;;;;;;8255932;28;20491;-85
2023/09/17 07:44:28;;;;;;;11.15;9.15;;;20.60;99.90;;;;;;8278478;28;20026;-85
2023/09/17 07:48:29;;;;;;;10.50;8.45;;;21.10;99.90;;;;;;8249406;28;20034;-85
2023/09/17 07:52:30;;;;;;;22.17;17.08;;;21.80;99.90;;;;;;8270955;28;20030;-85
2023/09/17 07:56:31;;;;;;;8.43;7.53;;;22.10;99.90;;;;;;8262028;28;20538;-85
2023/09/17 08:00:31;;;;;;;7.93;6.88;;;22.00;99.90;;;;;;8252741;28;20109;-85
2023/09/17 08:04:32;;;;;;;7.72;6.40;;;22.10;99.90;;;;;;8278248;28;20030;-84
2023/09/17 08:08:33;;;;;;;7.75;6.95;;;22.10;99.90;;;;;;8278955;28;20029;-85
2023/09/17 08:12:33;;;;;;;7.40;6.68;;;21.90;99.90;;;;;;8261474;28;20030;-85
2023/09/17 08:16:35;;;;;;;8.52;6.50;;;21.50;99.90;;;;;;8274524;28;20034;-85
2023/09/17 08:20:35;;;;;;;7.38;6.45;;;21.20;99.90;;;;;;8279163;28;20548;-85
2023/09/17 08:24:36;;;;;;;7.93;6.82;;;21.10;99.90;;;;;;8292897;28;20029;-85
2023/09/17 08:28:37;;;;;;;8.07;6.93;;;20.90;99.90;;;;;;8266830;28;20058;-85
2023/09/17 08:32:43;;;;;;;7.57;6.53;;;21.20;99.90;;;;;;8266624;28;20045;-85
2023/09/17 08:36:45;;;;;;;8.07;6.78;;;21.60;99.90;;;;;;8251921;28;20498;-85
2023/09/17 08:40:47;;;;;;;29.30;24.00;;;21.30;99.90;;;;;;8258467;28;20041;-85
2023/09/17 08:44:50;;;;;;;6.70;5.60;;;21.10;99.90;;;;;;8249937;28;20030;-84
2023/09/17 08:48:50;;;;;;;5.63;5.03;;;21.30;99.90;;;;;;8270139;28;20022;-85
2023/09/17 08:52:56;;;;;;;6.10;5.50;;;21.80;99.90;;;;;;8259518;28;20041;-83
2023/09/17 08:57:01;;;;;;;6.00;4.70;;;22.50;99.90;;;;;;8254515;28;20109;-84
2023/09/17 09:01:05;;;;;;;6.32;4.47;;;22.70;99.90;;;;;;8278781;28;20394;-85
2023/09/17 09:05:08;;;;;;;4.85;4.35;;;23.00;99.90;;;;;;8253361;28;20036;-85
2023/09/17 09:09:09;;;;;;;8.70;4.70;;;23.60;99.90;;;;;;8265726;28;20033;-86
2023/09/17 09:13:10;;;;;;;7.97;4.47;;;24.20;99.90;;;;;;8271200;28;20033;-85
2023/09/17 09:17:12;;;;;;;4.68;4.22;;;25.00;99.90;;;;;;8261499;28;20406;-84
2023/09/17 09:21:14;;;;;;;6.00;4.03;;;25.30;99.90;;;;;;8271260;28;20026;-84
2023/09/17 09:25:16;;;;;;;4.93;4.07;;;25.70;99.90;;;;;;8256520;28;20117;-84
2023/09/17 09:29:16;;;;;;;5.55;3.45;;;26.50;99.90;;;;;;8249935;28;20380;-85
2023/09/17 09:33:21;;;;;;;4.43;4.03;;;27.20;99.90;;;;;;8260063;28;20027;-84
2023/09/17 09:37:23;;;;;;;5.43;3.53;;;27.50;99.90;;;;;;8266603;28;20025;-84
2023/09/17 09:41:25;;;;;;;4.30;3.17;;;27.60;99.90;;;;;;8262824;28;20552;-83
2023/09/17 09:45:27;;;;;;;4.72;3.30;;;27.80;99.90;;;;;;8263806;28;20027;-84
2023/09/17 09:49:28;;;;;;;3.55;3.20;;;28.20;99.90;;;;;;8277785;28;20029;-84
2023/09/17 09:53:29;;;;;;;3.45;2.70;;;28.60;99.90;;;;;;8293000;28;20033;-85
2023/09/17 09:57:30;;;;;;;4.45;2.72;;;29.30;99.90;;;;;;8254549;28;20040;-86
2023/09/17 10:01:35;;;;;;;3.75;2.80;;;29.50;99.90;;;;;;8253990;28;20034;-86
2023/09/17 10:05:40;;;;;;;4.72;2.90;;;29.30;99.90;;;;;;8267170;28;20041;-85
2023/09/17 10:14:25;;;;;;;5.45;2.30;;;29.60;99.90;;;;;;8283480;28;20041;-83
2023/09/17 10:28:44;;;;;;;3.60;2.35;;;31.00;99.90;;;;;;8275509;28;20089;-85
2023/09/17 10:32:47;;;;;;;7.78;2.20;;;31.00;99.90;;;;;;8279788;28;20042;-84
2023/09/17 10:36:49;;;;;;;6.32;2.42;;;31.40;99.90;;;;;;8249786;28;20497;-84
2023/09/17 10:40:50;;;;;;;5.18;2.10;;;31.70;99.70;;;;;;8259739;28;20029;-84
2023/09/17 10:44:54;;;;;;;6.97;2.25;;;32.30;99.30;;;;;;8279068;28;20033;-83
2023/09/17 10:48:56;;;;;;;3.30;2.08;;;32.70;96.10;;;;;;8263056;28;20037;-82
2023/09/17 10:52:57;;;;;;;7.65;2.45;;;32.30;98.20;;;;;;8271397;28;20030;-83
2023/09/17 10:57:01;;;;;;;6.82;2.45;;;31.90;96.40;;;;;;8260211;28;20029;-83
2023/09/17 11:01:02;;;;;;;6.20;2.40;;;32.70;94.90;;;;;;8261092;28;20033;-83
2023/09/17 11:05:07;;;;;;;5.63;2.83;;;33.00;94.10;;;;;;8280880;28;20028;-84
2023/09/17 11:09:08;;;;;;;7.05;2.33;;;33.40;95.10;;;;;;8261311;28;20557;-83
2023/09/17 11:13:12;;;;;;;5.80;2.22;;;32.50;93.10;;;;;;8253057;28;20084;-84
2023/09/17 11:17:29;;;;;;;5.63;2.20;;;31.90;95.40;;;;;;8258834;28;20064;-82
2023/09/17 11:21:29;;;;;;;4.90;2.17;;;32.60;95.70;;;;;;8274942;28;20461;-83
2023/09/17 11:25:39;;;;;;;6.15;2.10;;;33.30;90.40;;;;;;8273162;28;20026;-84
2023/09/17 11:29:41;;;;;;;4.68;1.67;;;33.90;92.10;;;;;;8263637;28;20029;-84
2023/09/17 11:33:42;;;;;;;3.75;1.80;;;34.40;83.60;;;;;;8274113;28;20027;-85
2023/09/17 11:37:43;;;;;;;4.57;1.50;;;33.90;89.60;;;;;;8257501;28;20018;-84
2023/09/17 11:41:46;;;;;;;5.55;1.85;;;33.80;82.30;;;;;;8258241;28;20026;-85
2023/09/17 11:45:47;;;;;;;3.03;1.50;;;33.10;85.50;;;;;;8300144;23;20053;-83
2023/09/17 11:49:49;;;;;;;3.83;1.60;;;33.40;85.20;;;;;;8277132;28;20020;-84
2023/09/17 11:54:07;;;;;;;6.07;2.00;;;33.90;84.50;;;;;;8318274;28;20034;-84
2023/09/17 11:58:18;;;;;;;3.95;1.85;;;34.40;80.30;;;;;;8272495;28;20030;-84
2023/09/17 12:02:19;;;;;;;5.05;2.10;;;34.50;81.50;;;;;;8283045;28;20034;-83
2023/09/17 12:06:20;;;;;;;5.05;2.15;;;34.00;80.60;;;;;;8295279;28;20455;-84
2023/09/17 12:10:26;;;;;;;4.30;1.80;;;35.20;76.10;;;;;;8289602;28;20030;-84
2023/09/17 12:14:27;;;;;;;4.13;1.70;;;34.60;77.80;;;;;;8285049;28;20112;-84
2023/09/17 12:18:28;;;;;;;2.92;1.58;;;34.80;79.90;;;;;;8273139;28;20029;-83
2023/09/17 12:22:29;;;;;;;3.70;1.48;;;34.80;79.00;;;;;;8275115;28;20499;-84
2023/09/17 12:26:45;;;;;;;5.57;1.75;;;35.40;76.10;;;;;;8284484;28;20026;-83
2023/09/17 12:30:46;;;;;;;2.22;1.52;;;35.50;70.40;;;;;;8259981;28;20101;-84
2023/09/17 12:34:49;;;;;;;4.45;1.55;;;35.50;76.30;;;;;;8290220;28;20487;-84
2023/09/17 12:38:50;;;;;;;4.40;1.40;;;36.00;68.20;;;;;;8277704;28;20034;-83
2023/09/17 12:42:50;;;;;;;2.95;1.40;;;36.00;66.10;;;;;;8269262;28;20044;-85
2023/09/17 12:46:51;;;;;;;4.22;1.70;;;36.50;69.40;;;;;;8258741;28;20417;-85
2023/09/17 12:50:51;;;;;;;3.13;1.58;;;36.20;68.20;;;;;;8270775;28;20453;-84
2023/09/17 12:54:56;;;;;;;2.80;1.33;;;36.90;62.60;;;;;;8283033;28;20038;-83
2023/09/17 12:58:57;;;;;;;3.08;1.50;;;36.80;67.70;;;;;;8259848;28;20109;-83
2023/09/17 13:03:08;;;;;;;4.03;1.50;;;37.60;59.50;;;;;;8259991;28;20046;-84
2023/09/17 13:07:18;;;;;;;5.15;1.40;;;36.10;60.90;;;;;;8269575;28;20040;-84
2023/09/17 13:11:20;;;;;;;3.65;1.48;;;35.80;62.20;;;;;;8271878;28;20037;-84
2023/09/17 13:15:20;;;;;;;3.08;1.40;;;35.80;67.90;;;;;;8263420;28;20030;-83
2023/09/17 13:19:21;;;;;;;2.33;1.25;;;36.10;61.60;;;;;;8274967;28;20038;-83
2023/09/17 13:23:23;;;;;;;5.05;1.65;;;36.70;60.20;;;;;;8276386;28;20093;-84
2023/09/17 13:27:23;;;;;;;2.53;1.20;;;36.40;63.10;;;;;;8259273;28;20331;-86
2023/09/17 13:31:25;;;;;;;4.57;1.60;;;38.10;64.80;;;;;;8274428;28;20035;-84
2023/09/17 13:35:28;;;;;;;4.03;1.60;;;38.60;62.60;;;;;;8296311;28;20037;-84
2023/09/17 13:39:28;;;;;;;3.10;1.20;;;39.40;57.90;;;;;;8273427;28;20097;-83
2023/09/17 13:43:29;;;;;;;2.55;1.35;;;39.00;55.20;;;;;;8272301;28;20407;-84
2023/09/17 13:47:29;;;;;;;5.72;1.45;;;38.90;54.50;;;;;;8291105;28;20046;-84
2023/09/17 13:51:30;;;;;;;2.17;1.20;;;39.20;57.10;;;;;;8284534;28;20025;-84
2023/09/17 13:55:30;;;;;;;3.15;1.38;;;39.40;53.20;;;;;;8282601;28;20393;-84
2023/09/17 13:59:31;;;;;;;3.45;1.60;;;39.70;54.50;;;;;;8281593;28;20158;-84
2023/09/17 14:03:32;;;;;;;5.00;1.60;;;39.10;55.80;;;;;;8256916;28;20027;-84
2023/09/17 14:07:32;;;;;;;3.47;1.63;;;39.10;56.70;;;;;;8260508;28;20109;-85
2023/09/17 14:11:35;;;;;;;3.75;1.75;;;39.20;54.60;;;;;;8263177;28;20038;-84
2023/09/17 14:15:39;;;;;;;3.65;1.50;;;38.40;56.80;;;;;;8279209;28;20034;-85
2023/09/17 14:19:39;;;;;;;4.75;1.48;;;37.50;56.00;;;;;;8267041;28;20022;-84
2023/09/17 14:23:41;;;;;;;3.72;1.42;;;37.80;57.10;;;;;;8262652;28;20033;-85
2023/09/17 14:27:44;;;;;;;2.67;1.30;;;37.90;57.40;;;;;;8253541;28;20030;-85
2023/09/17 14:31:48;;;;;;;3.08;1.42;;;37.90;54.70;;;;;;8256647;28;20482;-84
2023/09/17 14:35:48;;;;;;;3.17;1.40;;;37.10;57.20;;;;;;8260645;28;20065;-86
2023/09/17 14:39:49;;;;;;;3.53;1.70;;;36.90;57.50;;;;;;8275900;28;20030;-84
2023/09/17 14:43:49;;;;;;;4.47;1.52;;;36.60;59.30;;;;;;8273952;28;20026;-84
2023/09/17 14:47:50;;;;;;;4.57;1.45;;;36.30;61.50;;;;;;8253750;28;20042;-84
2023/09/17 14:51:51;;;;;;;3.50;1.60;;;36.40;59.10;;;;;;8263217;28;20029;-85
2023/09/17 14:55:51;;;;;;;6.80;1.70;;;36.10;60.50;;;;;;8284279;28;20109;-84
2023/09/17 14:59:52;;;;;;;5.20;1.30;;;35.90;60.50;;;;;;8260665;28;20030;-84
2023/09/17 15:03:52;;;;;;;3.97;1.70;;;34.90;63.40;;;;;;8267485;28;20054;-84
2023/09/17 15:07:53;;;;;;;3.08;1.67;;;33.90;59.70;;;;;;8270870;28;20417;-85
2023/09/17 15:11:53;;;;;;;6.85;1.70;;;32.30;68.20;;;;;;8272169;28;20034;-83
2023/09/17 15:15:54;;;;;;;3.55;1.70;;;30.90;73.00;;;;;;8293742;28;20030;-84
2023/09/17 15:19:55;;;;;;;3.92;1.65;;;30.10;77.10;;;;;;8280539;28;20026;-83
2023/09/17 15:23:55;;;;;;;3.05;1.90;;;29.40;76.30;;;;;;8270854;28;20030;-85
2023/09/17 15:27:58;;;;;;;5.88;1.77;;;28.80;81.80;;;;;;8287970;28;20150;-84
2023/09/17 15:32:13;;;;;;;2.00;1.70;;;28.50;80.90;;;;;;8283509;28;20049;-84
2023/09/17 15:36:15;;;;;;;3.30;1.60;;;28.30;81.90;;;;;;8287026;28;20109;-85
2023/09/17 15:40:15;;;;;;;3.92;1.65;;;28.00;86.20;;;;;;8280338;28;20101;-84
2023/09/17 15:44:18;;;;;;;3.47;2.00;;;27.70;87.00;;;;;;8277204;28;20551;-84
2023/09/17 15:48:21;;;;;;;3.80;1.83;;;28.10;87.00;;;;;;8255909;28;20045;-84
2023/09/17 15:52:22;;;;;;;3.53;1.77;;;28.00;88.40;;;;;;8280340;28;20084;-84
2023/09/17 15:56:22;;;;;;;2.67;1.90;;;27.60;88.90;;;;;;8289964;28;20038;-84
2023/09/17 16:00:23;;;;;;;8.50;2.28;;;27.20;90.30;;;;;;8261476;28;20704;-83
2023/09/17 16:04:23;;;;;;;2.38;1.92;;;26.80;91.30;;;;;;8268827;28;20494;-84
2023/09/17 16:08:24;;;;;;;2.42;1.70;;;26.60;92.10;;;;;;8260432;28;20038;-83
2023/09/17 16:12:25;;;;;;;3.67;2.03;;;26.30;92.90;;;;;;8261250;28;20058;-83
2023/09/17 16:16:26;;;;;;;5.50;2.00;;;26.10;93.50;;;;;;8293285;28;20037;-84
2023/09/17 16:20:27;;;;;;;4.75;2.08;;;25.90;94.40;;;;;;8282979;28;20022;-84
2023/09/17 16:24:27;;;;;;;7.13;2.20;;;25.70;94.60;;;;;;8284258;28;20055;-84
2023/09/17 16:28:28;;;;;;;5.07;1.92;;;25.60;95.50;;;;;;8280253;28;20030;-84
2023/09/17 16:32:30;;;;;;;4.28;2.22;;;25.50;95.60;;;;;;8299558;28;20109;-84
2023/09/17 16:36:31;;;;;;;2.40;2.10;;;25.30;97.00;;;;;;8286254;28;20040;-83
2023/09/17 16:40:32;;;;;;;2.72;2.00;;;24.90;98.20;;;;;;8270809;28;20026;-83
2023/09/17 16:44:33;;;;;;;4.25;2.20;;;24.50;99.50;;;;;;8265555;28;20022;-83
2023/09/17 16:48:36;;;;;;;3.17;2.22;;;24.30;99.90;;;;;;8254791;28;20045;-83
2023/09/17 16:52:37;;;;;;;3.85;2.65;;;24.10;99.90;;;;;;8287929;28;20034;-84
2023/09/17 16:56:43;;;;;;;4.57;2.08;;;23.90;99.90;;;;;;8265797;28;20029;-83
2023/09/17 17:01:03;;;;;;;2.72;2.08;;;23.50;99.90;;;;;;8255853;28;20022;-83
2023/09/17 17:05:18;;;;;;;5.07;2.20;;;23.40;99.90;;;;;;8285951;28;20038;-84
2023/09/17 17:09:41;;;;;;;2.65;2.00;;;23.10;99.90;;;;;;8264689;28;20041;-84
2023/09/17 17:13:47;;;;;;;4.70;2.10;;;22.80;99.90;;;;;;8253268;28;20034;-84
2023/09/17 17:17:48;;;;;;;4.68;2.25;;;22.60;99.90;;;;;;8252942;28;20026;-84
2023/09/17 17:21:58;;;;;;;3.35;2.35;;;22.30;99.90;;;;;;8260468;28;20023;-83
2023/09/17 17:26:01;;;;;;;4.00;2.60;;;22.10;99.90;;;;;;8254112;28;20057;-84
2023/09/17 17:30:05;;;;;;;3.95;2.35;;;21.70;99.90;;;;;;8276868;28;20053;-84
2023/09/17 17:34:06;;;;;;;4.40;3.08;;;21.50;99.90;;;;;;8279628;28;20026;-83
2023/09/17 17:38:46;;;;;;;3.67;2.63;;;21.40;99.90;;;;;;8260869;28;20038;-83
2023/09/17 17:42:54;;;;;;;5.07;3.03;;;21.00;99.90;;;;;;8174863;28;20410;-83
2023/09/17 17:47:27;;;;;;;;;;;;;;;;;;;;;
2023/09/17 17:51:33;;;;;;;4.97;2.95;;;20.70;99.90;;;;;;8269020;28;20034;-83
2023/09/17 17:55:34;;;;;;;3.70;3.08;;;20.60;99.90;;;;;;8272550;28;20026;-83
2023/09/17 17:59:49;;;;;;;4.70;2.92;;;20.40;99.90;;;;;;8260616;28;20026;-83
2023/09/17 18:03:52;;;;;;;5.40;3.03;;;20.20;99.90;;;;;;8271529;28;20030;-83
2023/09/17 18:07:56;;;;;;;5.43;3.53;;;20.00;99.90;;;;;;8281487;28;20026;-83
2023/09/17 18:11:57;;;;;;;11.25;3.38;;;19.80;99.90;;;;;;8265086;28;20027;-84
2023/09/17 18:15:59;;;;;;;5.63;3.30;;;19.70;99.90;;;;;;8256997;28;20033;-83
2023/09/17 18:20:01;;;;;;;5.03;3.20;;;19.60;99.90;;;;;;8268124;28;20022;-83
2023/09/17 18:24:05;;;;;;;5.05;3.20;;;19.40;99.90;;;;;;8281486;28;20722;-84
2023/09/17 18:28:09;;;;;;;5.85;3.30;;;19.40;99.90;;;;;;8266390;28;20037;-83
2023/09/17 18:32:28;;;;;;;4.80;3.25;;;19.30;99.90;;;;;;8275666;28;20625;-83
2023/09/17 18:36:57;;;;;;;5.70;3.47;;;19.30;99.90;;;;;;8280302;28;20026;-84
2023/09/17 18:41:03;;;;;;;3.63;3.08;;;19.30;99.90;;;;;;8261171;28;20026;-83
2023/09/17 18:45:12;;;;;;;4.68;3.55;;;19.20;99.90;;;;;;8276640;28;20041;-83
2023/09/17 18:49:18;;;;;;;6.03;3.33;;;19.00;99.90;;;;;;8281056;28;20031;-84
2023/09/17 18:53:19;;;;;;;4.90;3.35;;;18.90;99.90;;;;;;8274161;28;20069;-84
2023/09/17 18:57:19;;;;;;;5.10;3.00;;;18.70;99.90;;;;;;8284423;28;21184;-84
2023/09/17 19:01:23;;;;;;;5.22;3.03;;;18.60;99.90;;;;;;8281320;28;20069;-83
2023/09/17 19:05:25;;;;;;;4.25;3.28;;;18.60;99.90;;;;;;8263485;28;20058;-83
2023/09/17 19:09:25;;;;;;;4.60;3.72;;;18.40;99.90;;;;;;8275018;28;20046;-83
2023/09/17 19:13:26;;;;;;;8.02;3.78;;;18.50;99.90;;;;;;8263541;28;20034;-83
2023/09/17 19:17:26;;;;;;;6.30;3.75;;;18.60;99.90;;;;;;8278323;28;20073;-83
2023/09/17 19:21:27;;;;;;;4.38;3.45;;;18.50;99.90;;;;;;8277733;28;20447;-83
2023/09/17 19:25:28;;;;;;;4.75;3.53;;;18.40;99.90;;;;;;8266464;28;20038;-83
2023/09/17 19:29:28;;;;;;;5.30;3.70;;;18.10;99.90;;;;;;8261191;28;20049;-84
2023/09/17 19:33:30;;;;;;;5.57;3.83;;;18.20;99.90;;;;;;8253861;28;20033;-84
2023/09/17 19:37:31;;;;;;;7.85;3.35;;;18.10;99.90;;;;;;8275733;28;21010;-84
2023/09/17 19:41:33;;;;;;;5.07;3.90;;;18.00;99.90;;;;;;8262400;28;20022;-83
2023/09/17 19:45:34;;;;;;;6.10;3.70;;;18.10;99.90;;;;;;8284135;28;20015;-84
2023/09/17 19:49:39;;;;;;;4.80;3.80;;;18.20;99.90;;;;;;8272185;28;20824;-83
2023/09/17 19:53:41;;;;;;;6.18;3.65;;;18.50;99.90;;;;;;8280481;28;20471;-84
2023/09/17 19:57:41;;;;;;;4.97;3.78;;;18.40;99.90;;;;;;8257550;28;20383;-84
2023/09/17 20:01:42;;;;;;;5.15;3.80;;;18.30;99.90;;;;;;8284546;28;20026;-83
2023/09/17 20:05:43;;;;;;;10.48;4.20;;;18.20;99.90;;;;;;8258103;28;20709;-83
2023/09/17 20:09:44;;;;;;;4.78;3.25;;;18.20;99.90;;;;;;8273176;28;20025;-84
2023/09/17 20:13:45;;;;;;;5.30;3.90;;;18.10;99.90;;;;;;8279791;28;20022;-83
2023/09/17 20:17:46;;;;;;;4.68;3.80;;;17.90;99.90;;;;;;8261569;28;20034;-85
2023/09/17 20:21:46;;;;;;;5.65;4.20;;;17.80;99.90;;;;;;8252648;28;20034;-84
2023/09/17 20:25:47;;;;;;;5.53;4.00;;;17.80;99.90;;;;;;8271916;28;20530;-83
2023/09/17 20:29:47;;;;;;;5.88;4.00;;;17.60;99.90;;;;;;8278179;28;20021;-84
2023/09/17 20:33:48;;;;;;;4.55;3.92;;;17.40;99.90;;;;;;8325020;23;20046;-84
2023/09/17 20:37:49;;;;;;;6.63;3.95;;;17.10;99.90;;;;;;8265962;28;20022;-83
2023/09/17 20:41:49;;;;;;;4.93;3.53;;;17.00;99.90;;;;;;8268861;28;20021;-84
2023/09/17 20:45:50;;;;;;;6.38;3.92;;;16.80;99.90;;;;;;8243004;28;20037;-84
2023/09/17 20:49:50;;;;;;;5.07;3.67;;;16.70;99.90;;;;;;8253443;28;20531;-84
2023/09/17 20:53:51;;;;;;;6.38;3.70;;;16.70;99.90;;;;;;8240259;28;20376;-84
2023/09/17 20:57:52;;;;;;;6.72;3.55;;;16.60;99.90;;;;;;8230482;28;20037;-83
2023/09/17 21:01:53;;;;;;;5.60;3.60;;;16.40;99.90;;;;;;8254343;28;20031;-83
2023/09/17 21:05:54;;;;;;;5.10;3.80;;;16.50;99.90;;;;;;8231649;28;20490;-84
2023/09/17 21:09:56;;;;;;;6.30;4.53;;;16.40;99.90;;;;;;8239423;28;20110;-84